createdAt,value
2022-12-25T00:01:10.270Z,98.22
2022-12-25T00:03:37.707Z,98.38
2022-12-25T00:06:04.313Z,98.61
2022-12-25T00:08:31.273Z,98.58
2022-12-25T00:11:02.711Z,98.40
2022-12-25T00:13:29.354Z,98.89
2022-12-25T00:15:56.217Z,98.93
2022-12-25T00:18:23.231Z,98.96
2022-12-25T00:20:59.956Z,99.00
2022-12-25T00:23:27.046Z,98.88
2022-12-25T00:25:54.257Z,98.94
2022-12-25T00:28:21.202Z,98.93
2022-12-25T00:30:48.079Z,99.01
2022-12-25T00:33:14.841Z,99.32
2022-12-25T00:35:41.294Z,99.32
2022-12-25T00:38:08.177Z,99.04
2022-12-25T00:40:34.572Z,99.02
2022-12-25T00:43:00.945Z,98.88
2022-12-25T00:45:27.360Z,99.15
2022-12-25T00:47:53.795Z,98.97
2022-12-25T00:50:20.356Z,99.17
2022-12-25T00:52:46.817Z,99.24
2022-12-25T00:55:13.297Z,99.23
2022-12-25T00:57:39.733Z,99.10
2022-12-25T01:00:06.964Z,99.07
2022-12-25T01:02:33.388Z,98.97
2022-12-25T01:04:59.856Z,99.47
2022-12-25T01:07:26.823Z,99.42
2022-12-25T01:10:12.036Z,99.35
2022-12-25T01:12:41.937Z,99.57
2022-12-25T01:15:10.619Z,99.39
2022-12-25T01:17:37.182Z,99.25
2022-12-25T01:20:04.188Z,99.25
2022-12-25T01:22:30.610Z,99.67
2022-12-25T01:24:57.033Z,99.64
2022-12-25T01:27:23.409Z,99.64
2022-12-25T01:29:49.749Z,99.71
2022-12-25T01:32:16.136Z,99.94
2022-12-25T01:34:42.528Z,99.67
2022-12-25T01:37:08.933Z,99.97
2022-12-25T01:39:35.305Z,99.79
2022-12-25T01:42:01.677Z,99.77
2022-12-25T01:44:37.316Z,99.82
2022-12-25T01:47:05.448Z,99.67
2022-12-25T01:49:36.821Z,99.40
2022-12-25T01:52:12.026Z,99.28
2022-12-25T01:54:43.799Z,99.02
2022-12-25T01:57:17.095Z,99.14
2022-12-25T01:59:43.649Z,98.62
2022-12-25T02:02:10.205Z,98.35
2022-12-25T02:04:43.944Z,98.55
2022-12-25T02:07:16.414Z,98.04
2022-12-25T02:09:43.947Z,98.12
2022-12-25T02:12:18.539Z,98.17
2022-12-25T02:14:45.511Z,98.21
2022-12-25T02:17:30.214Z,98.34
2022-12-25T02:20:34.099Z,98.67
2022-12-25T02:23:37.956Z,98.46
2022-12-25T02:26:16.898Z,98.97
2022-12-25T02:29:00.857Z,98.77
2022-12-25T02:31:50.673Z,98.61
2022-12-25T02:34:34.475Z,98.68
2022-12-25T02:37:09.797Z,98.57
2022-12-25T02:39:59.583Z,98.25
2022-12-25T02:43:22.703Z,98.33
2022-12-25T02:46:13.731Z,98.42
2022-12-25T02:49:03.944Z,98.57
2022-12-25T02:51:53.210Z,98.25
2022-12-25T02:54:44.951Z,98.51
2022-12-25T02:57:33.355Z,98.77
2022-12-25T03:00:20.205Z,98.51
2022-12-25T03:03:07.566Z,98.36
2022-12-25T03:05:57.273Z,98.83
2022-12-25T03:08:28.139Z,98.87
2022-12-25T03:11:20.193Z,98.55
2022-12-25T03:13:51.287Z,98.46
2022-12-25T03:16:36.883Z,97.92
2022-12-25T03:19:26.940Z,97.19
2022-12-25T03:22:13.470Z,97.26
2022-12-25T03:24:59.744Z,97.12
2022-12-25T03:27:29.454Z,97.19
2022-12-25T03:30:14.581Z,96.95
2022-12-25T03:32:51.777Z,97.09
2022-12-25T03:35:30.207Z,97.14
2022-12-25T03:38:44.717Z,97.69
2022-12-25T03:41:34.990Z,97.40
2022-12-25T03:44:35.155Z,97.49
2022-12-25T03:47:32.995Z,97.14
2022-12-25T03:50:36.971Z,97.82
2022-12-25T03:53:28.282Z,97.52
2022-12-25T03:56:14.644Z,97.21
2022-12-25T03:59:10.591Z,96.93
2022-12-25T04:01:55.465Z,96.73
2022-12-25T04:04:40.739Z,96.49
2022-12-25T04:07:25.532Z,96.74
2022-12-25T04:10:10.343Z,96.19
2022-12-25T04:12:55.132Z,95.76
2022-12-25T04:15:50.514Z,95.86
2022-12-25T04:18:35.302Z,95.97
2022-12-25T04:21:20.173Z,94.94
2022-12-25T04:24:05.110Z,94.55
2022-12-25T04:26:49.884Z,95.35
2022-12-25T04:29:34.744Z,95.50
2022-12-25T04:32:19.893Z,95.27
2022-12-25T04:35:05.037Z,95.49
2022-12-25T04:37:31.416Z,95.59
2022-12-25T04:39:57.822Z,95.62
2022-12-25T04:42:24.209Z,95.86
2022-12-25T04:44:50.592Z,95.70
2022-12-25T04:47:16.967Z,96.03
2022-12-25T04:49:43.335Z,95.78
2022-12-25T04:52:09.715Z,95.74
2022-12-25T04:54:37.966Z,95.55
2022-12-25T04:57:05.000Z,95.52
2022-12-25T04:59:31.399Z,95.87
2022-12-25T05:01:57.839Z,95.81
2022-12-25T05:04:24.385Z,96.49
2022-12-25T05:06:50.754Z,96.78
2022-12-25T05:09:17.148Z,96.52
2022-12-25T05:11:43.647Z,96.12
2022-12-25T05:14:10.003Z,96.37
2022-12-25T05:16:36.516Z,95.99
2022-12-25T05:19:02.950Z,96.10
2022-12-25T05:21:29.319Z,95.96
2022-12-25T05:23:55.692Z,95.81
2022-12-25T05:26:25.115Z,96.05
2022-12-25T05:28:51.608Z,95.79
2022-12-25T05:31:18.545Z,95.78
2022-12-25T05:33:45.033Z,95.74
2022-12-25T05:36:12.877Z,95.79
2022-12-25T05:38:39.451Z,95.63
2022-12-25T05:41:05.878Z,95.16
2022-12-25T05:43:32.413Z,94.63
2022-12-25T05:46:03.411Z,94.91
2022-12-25T05:48:29.813Z,95.63
2022-12-25T05:50:56.223Z,95.79
2022-12-25T05:53:22.623Z,95.83
2022-12-25T05:55:49.260Z,95.63
2022-12-25T05:58:15.813Z,95.87
2022-12-25T06:00:43.904Z,95.44
2022-12-25T06:03:10.418Z,95.54
2022-12-25T06:05:39.469Z,95.76
2022-12-25T06:08:06.062Z,96.22
2022-12-25T06:10:32.521Z,96.69
2022-12-25T06:12:58.990Z,96.72
2022-12-25T06:15:25.435Z,96.47
2022-12-25T06:17:51.835Z,96.41
2022-12-25T06:20:18.241Z,96.41
2022-12-25T06:22:44.626Z,96.44
2022-12-25T06:25:11.107Z,96.64
2022-12-25T06:27:37.555Z,97.04
2022-12-25T06:30:05.160Z,97.43
2022-12-25T06:32:31.554Z,98.00
2022-12-25T06:34:57.947Z,97.87
2022-12-25T06:37:24.421Z,98.22
2022-12-25T06:39:50.808Z,98.77
2022-12-25T06:42:17.186Z,98.57
2022-12-25T06:44:44.473Z,98.64
2022-12-25T06:47:11.266Z,99.06
2022-12-25T06:49:37.625Z,98.79
2022-12-25T06:52:04.067Z,99.13
2022-12-25T06:54:30.469Z,98.74
2022-12-25T06:56:56.981Z,98.92
2022-12-25T06:59:23.386Z,98.77
2022-12-25T07:01:53.120Z,98.86
2022-12-25T07:04:26.904Z,98.82
2022-12-25T07:06:53.545Z,99.14
2022-12-25T07:09:19.895Z,99.00
2022-12-25T07:11:46.378Z,98.94
2022-12-25T07:14:24.193Z,99.02
2022-12-25T07:16:51.189Z,98.47
2022-12-25T07:19:17.651Z,98.98
2022-12-25T07:21:44.062Z,98.68
2022-12-25T07:24:10.786Z,98.62
2022-12-25T07:26:37.193Z,98.35
2022-12-25T07:29:03.630Z,98.12
2022-12-25T07:31:30.151Z,98.37
2022-12-25T07:33:56.537Z,98.76
2022-12-25T07:36:22.914Z,98.55
2022-12-25T07:38:50.180Z,98.49
2022-12-25T07:41:17.177Z,98.56
2022-12-25T07:43:43.728Z,98.31
2022-12-25T07:46:10.750Z,98.72
2022-12-25T07:48:37.295Z,98.83
2022-12-25T07:51:10.769Z,99.02
2022-12-25T07:53:38.240Z,99.06
2022-12-25T07:56:07.542Z,99.19
2022-12-25T07:58:34.737Z,99.18
2022-12-25T08:01:07.407Z,99.22
2022-12-25T08:03:35.025Z,99.38
2022-12-25T08:06:06.107Z,99.32
2022-12-25T08:08:33.266Z,99.69
2022-12-25T08:11:00.335Z,99.13
2022-12-25T08:13:29.832Z,99.57
2022-12-25T08:16:01.176Z,99.39
2022-12-25T08:18:30.259Z,99.54
2022-12-25T08:21:01.469Z,99.25
2022-12-25T08:23:28.022Z,99.67
2022-12-25T08:26:04.453Z,99.49
2022-12-25T08:28:33.171Z,99.45
2022-12-25T08:30:59.744Z,99.44
2022-12-25T08:33:26.211Z,99.32
2022-12-25T08:35:52.613Z,99.47
2022-12-25T08:38:19.142Z,99.49
2022-12-25T08:40:45.511Z,99.35
2022-12-25T08:43:11.940Z,99.74
2022-12-25T08:45:38.361Z,99.47
2022-12-25T08:48:04.797Z,99.04
2022-12-25T08:50:31.312Z,99.54
2022-12-25T08:52:57.687Z,99.47
2022-12-25T08:55:24.093Z,99.50
2022-12-25T08:57:53.292Z,99.21
2022-12-25T09:00:20.135Z,99.34
2022-12-25T09:02:46.762Z,99.39
2022-12-25T09:05:13.331Z,99.09
2022-12-25T09:07:39.748Z,99.78
2022-12-25T09:10:07.177Z,99.52
2022-12-25T09:12:33.670Z,99.47
2022-12-25T09:15:00.203Z,99.32
2022-12-25T09:17:26.624Z,99.30
2022-12-25T09:19:53.040Z,99.91
2022-12-25T09:22:19.517Z,99.29
2022-12-25T09:24:45.913Z,99.92
2022-12-25T09:27:12.325Z,99.83
2022-12-25T09:29:39.165Z,99.87
2022-12-25T09:32:05.966Z,100.00
2022-12-25T09:34:33.431Z,99.91
2022-12-25T09:36:59.931Z,100.00
2022-12-25T09:39:26.768Z,100.00
2022-12-25T09:42:05.198Z,100.00
2022-12-25T09:44:40.735Z,99.98
2022-12-25T09:47:13.696Z,99.75
2022-12-25T09:49:57.345Z,99.07
2022-12-25T09:52:35.323Z,98.96
2022-12-25T09:55:19.772Z,98.29
2022-12-25T09:57:51.247Z,98.17
2022-12-25T10:00:20.761Z,98.07
2022-12-25T10:03:21.595Z,98.16
2022-12-25T10:06:30.205Z,98.04
2022-12-25T10:09:18.445Z,97.84
2022-12-25T10:11:53.924Z,97.52
2022-12-25T10:14:45.773Z,98.16
2022-12-25T10:17:45.271Z,98.15
2022-12-25T10:20:14.663Z,98.32
2022-12-25T10:22:45.694Z,97.74
2022-12-25T10:25:18.855Z,97.82
2022-12-25T10:27:45.297Z,97.97
2022-12-25T10:30:21.065Z,98.22
2022-12-25T10:32:48.574Z,97.92
2022-12-25T10:35:18.940Z,98.19
2022-12-25T10:37:52.896Z,97.86
2022-12-25T10:40:51.703Z,97.53
2022-12-25T10:43:25.456Z,96.59
2022-12-25T10:45:51.897Z,96.55
2022-12-25T10:48:22.690Z,97.21
2022-12-25T10:50:49.618Z,96.92
2022-12-25T10:53:25.966Z,96.78
2022-12-25T10:56:01.225Z,97.06
2022-12-25T10:58:28.764Z,96.39
2022-12-25T11:00:59.645Z,96.44
2022-12-25T11:03:38.853Z,96.05
2022-12-25T11:06:07.185Z,95.77
2022-12-25T11:08:34.871Z,95.39
2022-12-25T11:11:06.421Z,95.35
2022-12-25T11:13:47.455Z,94.78
2022-12-25T11:16:26.353Z,94.52
2022-12-25T11:18:54.403Z,93.97
2022-12-25T11:21:36.728Z,94.36
2022-12-25T11:24:06.186Z,94.84
2022-12-25T11:26:53.531Z,95.52
2022-12-25T11:29:40.127Z,95.33
2022-12-25T11:32:16.062Z,96.05
2022-12-25T11:34:45.771Z,95.80
2022-12-25T11:37:20.038Z,95.48
2022-12-25T11:39:46.575Z,95.34
2022-12-25T11:42:32.258Z,95.44
2022-12-25T11:45:05.247Z,95.49
2022-12-25T11:47:48.600Z,94.89
2022-12-25T11:50:25.415Z,95.14
2022-12-25T11:52:53.108Z,95.59
2022-12-25T11:55:40.083Z,95.72
2022-12-25T11:58:15.689Z,96.57
2022-12-25T12:00:45.087Z,96.52
2022-12-25T12:03:24.000Z,96.58
2022-12-25T12:05:59.876Z,96.64
2022-12-25T12:08:27.527Z,95.96
2022-12-25T12:11:16.417Z,96.02
2022-12-25T12:14:15.233Z,96.60
2022-12-25T12:16:41.705Z,96.49
2022-12-25T12:19:27.597Z,96.98
2022-12-25T12:21:57.174Z,97.37
2022-12-25T12:24:28.352Z,97.62
2022-12-25T12:27:24.632Z,97.74
2022-12-25T12:29:55.497Z,97.61
2022-12-25T12:32:38.373Z,97.52
2022-12-25T12:35:18.212Z,97.66
2022-12-25T12:37:57.147Z,97.45
2022-12-25T12:40:25.593Z,97.95
2022-12-25T12:42:53.253Z,98.05
2022-12-25T12:45:25.685Z,97.62
2022-12-25T12:47:53.298Z,97.82
2022-12-25T12:50:33.718Z,97.54
2022-12-25T12:53:15.267Z,97.02
2022-12-25T12:55:41.735Z,96.99
2022-12-25T12:58:25.063Z,97.28
2022-12-25T13:01:11.714Z,97.13
2022-12-25T13:03:57.874Z,97.55
2022-12-25T13:07:07.956Z,97.73
2022-12-25T13:10:18.836Z,97.43
2022-12-25T13:12:46.010Z,97.92
2022-12-25T13:15:14.249Z,98.22
2022-12-25T13:17:45.042Z,98.15
2022-12-25T13:20:25.012Z,98.08
2022-12-25T13:22:53.180Z,97.84
2022-12-25T13:25:23.845Z,97.64
2022-12-25T13:27:57.694Z,97.88
2022-12-25T13:30:24.995Z,97.61
2022-12-25T13:32:51.648Z,97.00
2022-12-25T13:35:21.144Z,97.46
2022-12-25T13:37:47.918Z,97.59
2022-12-25T13:40:27.294Z,98.04
2022-12-25T13:43:00.875Z,97.70
2022-12-25T13:45:30.483Z,97.55
2022-12-25T13:47:57.435Z,97.09
2022-12-25T13:50:31.628Z,97.24
2022-12-25T13:53:10.235Z,96.90
2022-12-25T13:55:36.711Z,97.17
2022-12-25T13:58:07.294Z,97.59
2022-12-25T14:00:39.390Z,97.94
2022-12-25T14:03:07.543Z,98.35
2022-12-25T14:05:42.268Z,98.32
2022-12-25T14:08:22.762Z,98.78
2022-12-25T14:10:51.150Z,98.82
2022-12-25T14:13:20.995Z,98.84
2022-12-25T14:15:48.836Z,98.62
2022-12-25T14:18:17.274Z,98.72
2022-12-25T14:21:04.488Z,98.87
2022-12-25T14:23:43.010Z,98.91
2022-12-25T14:26:21.375Z,98.81
2022-12-25T14:28:53.859Z,99.00
2022-12-25T14:31:21.432Z,99.17
2022-12-25T14:33:48.974Z,98.76
2022-12-25T14:36:15.900Z,98.88
2022-12-25T14:38:43.954Z,98.91
2022-12-25T14:41:33.375Z,99.15
2022-12-25T14:44:02.623Z,99.27
2022-12-25T14:46:32.181Z,99.26
2022-12-25T14:49:00.983Z,99.67
2022-12-25T14:51:28.188Z,99.69
2022-12-25T14:54:04.098Z,99.78
2022-12-25T14:56:38.034Z,99.53
2022-12-25T14:59:05.467Z,99.52
2022-12-25T15:01:35.925Z,100.00
2022-12-25T15:04:11.422Z,100.00
2022-12-25T15:06:53.539Z,100.00
2022-12-25T15:09:20.021Z,100.00
2022-12-25T15:11:53.415Z,100.00
2022-12-25T15:14:19.822Z,100.00
2022-12-25T15:16:48.975Z,100.00
2022-12-25T15:19:37.692Z,100.00
2022-12-25T15:22:05.545Z,100.00
2022-12-25T15:24:32.019Z,100.00
2022-12-25T15:27:00.258Z,100.00
2022-12-25T15:29:52.193Z,100.00
2022-12-25T15:32:19.693Z,100.00
2022-12-25T15:34:49.529Z,100.00
2022-12-25T15:37:18.001Z,100.00
2022-12-25T15:39:44.577Z,100.00
2022-12-25T15:42:13.567Z,100.00
2022-12-25T15:44:41.313Z,100.00
2022-12-25T15:47:12.000Z,100.00
2022-12-25T15:49:38.388Z,100.00
2022-12-25T15:52:10.460Z,100.00
2022-12-25T15:54:36.862Z,100.00
2022-12-25T15:57:05.519Z,100.00
2022-12-25T15:59:32.781Z,100.00
2022-12-25T16:02:01.295Z,100.00
2022-12-25T16:04:28.788Z,100.00
2022-12-25T16:06:56.053Z,100.00
2022-12-25T16:09:23.010Z,100.00
2022-12-25T16:11:50.233Z,100.00
2022-12-25T16:14:16.874Z,100.00
2022-12-25T16:16:43.370Z,100.00
2022-12-25T16:19:09.915Z,100.00
2022-12-25T16:21:42.704Z,100.00
2022-12-25T16:24:09.276Z,100.00
2022-12-25T16:26:35.938Z,100.00
2022-12-25T16:29:06.986Z,100.00
2022-12-25T16:31:34.297Z,100.00
2022-12-25T16:34:01.479Z,100.00
2022-12-25T16:36:27.899Z,100.00
2022-12-25T16:38:54.282Z,100.00
2022-12-25T16:41:21.725Z,100.00
2022-12-25T16:43:48.340Z,100.00
2022-12-25T16:46:18.075Z,100.00
2022-12-25T16:48:44.879Z,100.00
2022-12-25T16:51:13.618Z,100.00
2022-12-25T16:53:40.207Z,100.00
2022-12-25T16:56:12.092Z,100.00
2022-12-25T16:58:38.456Z,100.00
2022-12-25T17:01:10.297Z,100.00
2022-12-25T17:03:37.275Z,100.00
2022-12-25T17:06:05.070Z,100.00
2022-12-25T17:08:31.444Z,100.00
2022-12-25T17:10:57.872Z,100.00
2022-12-25T17:13:24.266Z,100.00
2022-12-25T17:15:51.025Z,100.00
2022-12-25T17:18:21.719Z,100.00
2022-12-25T17:20:53.128Z,100.00
2022-12-25T17:23:20.856Z,100.00
2022-12-25T17:25:47.226Z,100.00
2022-12-25T17:28:13.705Z,100.00
2022-12-25T17:30:40.143Z,100.00
2022-12-25T17:33:06.556Z,100.00
2022-12-25T17:35:36.039Z,100.00
2022-12-25T17:38:02.511Z,100.00
2022-12-25T17:40:29.825Z,100.00
2022-12-25T17:42:56.296Z,100.00
2022-12-25T17:45:22.712Z,100.00
2022-12-25T17:47:49.138Z,100.00
2022-12-25T17:50:15.633Z,100.00
2022-12-25T17:52:42.386Z,100.00
2022-12-25T17:55:09.046Z,100.00
2022-12-25T17:57:35.593Z,100.00
2022-12-25T18:00:02.009Z,100.00
2022-12-25T18:02:29.938Z,100.00
2022-12-25T18:04:57.013Z,100.00
2022-12-25T18:07:23.457Z,100.00
2022-12-25T18:09:49.822Z,100.00
2022-12-25T18:12:16.216Z,100.00
2022-12-25T18:14:42.720Z,100.00
2022-12-25T18:17:09.311Z,100.00
2022-12-25T18:19:35.759Z,100.00
2022-12-25T18:22:02.155Z,100.00
2022-12-25T18:24:28.561Z,100.00
2022-12-25T18:26:54.982Z,100.00
2022-12-25T18:29:21.457Z,100.00
2022-12-25T18:31:47.952Z,100.00
2022-12-25T18:34:14.648Z,100.00
2022-12-25T18:36:41.230Z,100.00
2022-12-25T18:39:07.924Z,100.00
2022-12-25T18:41:54.308Z,100.00
2022-12-25T18:44:20.685Z,100.00
2022-12-25T18:46:47.093Z,100.00
2022-12-25T18:49:13.454Z,100.00
2022-12-25T18:51:39.857Z,100.00
2022-12-25T18:54:06.268Z,100.00
2022-12-25T18:56:33.134Z,100.00
2022-12-25T18:59:00.607Z,100.00
2022-12-25T19:01:27.104Z,100.00
2022-12-25T19:03:57.307Z,100.00
2022-12-25T19:06:28.270Z,100.00
2022-12-25T19:08:55.736Z,100.00
2022-12-25T19:11:22.938Z,100.00
2022-12-25T19:13:49.597Z,100.00
2022-12-25T19:16:16.417Z,100.00
2022-12-25T19:18:42.945Z,100.00
2022-12-25T19:21:09.801Z,100.00
2022-12-25T19:23:37.829Z,100.00
2022-12-25T19:26:08.972Z,100.00
2022-12-25T19:28:36.532Z,100.00
2022-12-25T19:31:07.280Z,100.00
2022-12-25T19:33:35.386Z,100.00
2022-12-25T19:36:04.303Z,100.00
2022-12-25T19:38:30.976Z,100.00
2022-12-25T19:41:00.939Z,100.00
2022-12-25T19:43:29.896Z,100.00
2022-12-25T19:45:56.663Z,100.00
2022-12-25T19:48:23.688Z,100.00
2022-12-25T19:50:50.308Z,100.00
2022-12-25T19:53:17.493Z,100.00
2022-12-25T19:55:44.993Z,100.00
2022-12-25T19:58:11.907Z,100.00
2022-12-25T20:00:38.529Z,100.00
2022-12-25T20:03:05.038Z,100.00
2022-12-25T20:05:31.584Z,100.00
2022-12-25T20:07:57.953Z,100.00
2022-12-25T20:10:24.555Z,100.00
2022-12-25T20:12:51.205Z,100.00
2022-12-25T20:15:17.654Z,100.00
2022-12-25T20:17:46.622Z,100.00
2022-12-25T20:20:13.170Z,100.00
2022-12-25T20:22:39.705Z,100.00
2022-12-25T20:25:09.078Z,100.00
2022-12-25T20:27:35.625Z,100.00
2022-12-25T20:30:02.208Z,100.00
2022-12-25T20:32:29.448Z,100.00
2022-12-25T20:34:55.870Z,100.00
2022-12-25T20:37:22.768Z,100.00
2022-12-25T20:39:49.153Z,100.00
2022-12-25T20:42:15.542Z,100.00
2022-12-25T20:44:41.898Z,100.00
2022-12-25T20:47:08.811Z,100.00
2022-12-25T20:49:35.339Z,100.00
2022-12-25T20:52:05.560Z,100.00
2022-12-25T20:54:32.298Z,100.00
2022-12-25T20:56:58.667Z,100.00
2022-12-25T20:59:25.256Z,100.00
2022-12-25T21:01:54.089Z,100.00
2022-12-25T21:04:20.821Z,100.00
2022-12-25T21:06:47.251Z,100.00
2022-12-25T21:09:13.704Z,100.00
2022-12-25T21:11:40.167Z,100.00
2022-12-25T21:14:06.675Z,100.00
2022-12-25T21:16:33.191Z,100.00
2022-12-25T21:18:59.773Z,100.00
2022-12-25T21:21:26.761Z,100.00
2022-12-25T21:23:56.057Z,100.00
2022-12-25T21:26:27.687Z,100.00
2022-12-25T21:28:57.384Z,100.00
2022-12-25T21:31:24.349Z,100.00
2022-12-25T21:33:54.401Z,100.00
2022-12-25T21:36:34.266Z,100.00
2022-12-25T21:39:03.924Z,100.00
2022-12-25T21:41:31.740Z,100.00
2022-12-25T21:43:58.670Z,100.00
2022-12-25T21:46:25.857Z,100.00
2022-12-25T21:48:52.787Z,100.00
2022-12-25T21:51:57.448Z,100.00
2022-12-25T21:54:23.836Z,100.00
2022-12-25T21:56:50.623Z,100.00
2022-12-25T21:59:21.048Z,100.00
2022-12-25T22:01:48.339Z,100.00
2022-12-25T22:04:16.405Z,100.00
2022-12-25T22:07:18.644Z,100.00
2022-12-25T22:09:47.201Z,100.00
2022-12-25T22:12:34.529Z,100.00
2022-12-25T22:15:06.623Z,100.00
2022-12-25T22:17:59.645Z,100.00
2022-12-25T22:20:34.755Z,100.00
2022-12-25T22:23:01.734Z,100.00
2022-12-25T22:25:28.184Z,100.00
2022-12-25T22:27:54.780Z,100.00
2022-12-25T22:30:28.346Z,100.00
2022-12-25T22:32:55.671Z,100.00
2022-12-25T22:35:22.607Z,100.00
2022-12-25T22:37:49.757Z,100.00
2022-12-25T22:40:18.510Z,100.00
2022-12-25T22:42:44.950Z,100.00
2022-12-25T22:45:12.242Z,100.00
2022-12-25T22:47:38.733Z,100.00
2022-12-25T22:50:07.183Z,100.00
2022-12-25T22:52:33.568Z,100.00
2022-12-25T22:55:00.024Z,100.00
2022-12-25T22:57:26.563Z,99.83
2022-12-25T22:59:53.259Z,99.49
2022-12-25T23:02:20.173Z,99.33
2022-12-25T23:04:46.836Z,99.94
2022-12-25T23:07:14.505Z,99.61
2022-12-25T23:09:41.717Z,100.00
2022-12-25T23:12:28.534Z,99.91
2022-12-25T23:14:55.702Z,100.00
2022-12-25T23:17:40.846Z,99.92
2022-12-25T23:20:26.632Z,100.00
2022-12-25T23:23:11.561Z,100.00
2022-12-25T23:25:56.202Z,100.00
2022-12-25T23:28:41.052Z,100.00
2022-12-25T23:31:07.716Z,100.00
2022-12-25T23:33:34.195Z,100.00
2022-12-25T23:36:00.658Z,100.00
2022-12-25T23:38:27.038Z,100.00
2022-12-25T23:40:53.500Z,100.00
2022-12-25T23:43:19.923Z,100.00
2022-12-25T23:45:46.427Z,100.00
2022-12-25T23:48:12.838Z,100.00
2022-12-25T23:50:39.248Z,100.00
2022-12-25T23:53:05.669Z,100.00
2022-12-25T23:55:33.861Z,100.00
2022-12-25T23:58:00.306Z,100.00
